sensor_id;sensor_type;location;lat;lon;timestamp;P1;durP1;ratioP1;P2;durP2;ratioP2
27857;SDS011;16852;51.446;6.528;2023-03-14T00:01:26;5.10;;;1.50;;
27857;SDS011;16852;51.446;6.528;2023-03-14T00:03:28;5.05;;;1.35;;
27857;SDS011;16852;51.446;6.528;2023-03-14T00:05:29;7.38;;;1.92;;
27857;SDS011;16852;51.446;6.528;2023-03-14T00:07:29;6.35;;;1.60;;
27857;SDS011;16852;51.446;6.528;2023-03-14T00:09:33;8.38;;;1.88;;
27857;SDS011;16852;51.446;6.528;2023-03-14T00:11:34;5.07;;;1.55;;
27857;SDS011;16852;51.446;6.528;2023-03-14T00:13:35;7.25;;;2.03;;
27857;SDS011;16852;51.446;6.528;2023-03-14T00:15:35;6.07;;;1.65;;
27857;SDS011;16852;51.446;6.528;2023-03-14T00:17:36;6.47;;;1.90;;
27857;SDS011;16852;51.446;6.528;2023-03-14T00:19:37;9.75;;;2.75;;
27857;SDS011;16852;51.446;6.528;2023-03-14T00:21:38;6.65;;;2.22;;
27857;SDS011;16852;51.446;6.528;2023-03-14T00:23:39;9.00;;;2.03;;
27857;SDS011;16852;51.446;6.528;2023-03-14T00:25:41;4.97;;;2.03;;
27857;SDS011;16852;51.446;6.528;2023-03-14T00:27:41;7.55;;;1.90;;
27857;SDS011;16852;51.446;6.528;2023-03-14T00:29:42;3.22;;;1.30;;
27857;SDS011;16852;51.446;6.528;2023-03-14T00:31:43;4.25;;;1.55;;
27857;SDS011;16852;51.446;6.528;2023-03-14T00:33:44;12.38;;;2.20;;
27857;SDS011;16852;51.446;6.528;2023-03-14T00:35:58;6.68;;;1.73;;
27857;SDS011;16852;51.446;6.528;2023-03-14T00:38:00;6.35;;;1.73;;
27857;SDS011;16852;51.446;6.528;2023-03-14T00:40:00;6.03;;;1.83;;
27857;SDS011;16852;51.446;6.528;2023-03-14T00:42:01;6.97;;;1.85;;
27857;SDS011;16852;51.446;6.528;2023-03-14T00:44:01;7.18;;;1.95;;
27857;SDS011;16852;51.446;6.528;2023-03-14T00:46:02;9.75;;;2.10;;
27857;SDS011;16852;51.446;6.528;2023-03-14T00:48:03;7.35;;;1.63;;
27857;SDS011;16852;51.446;6.528;2023-03-14T00:50:04;7.15;;;1.67;;
27857;SDS011;16852;51.446;6.528;2023-03-14T00:52:05;6.05;;;1.75;;
27857;SDS011;16852;51.446;6.528;2023-03-14T00:54:05;5.65;;;1.52;;
27857;SDS011;16852;51.446;6.528;2023-03-14T00:56:07;6.72;;;1.50;;
27857;SDS011;16852;51.446;6.528;2023-03-14T00:58:10;5.25;;;1.65;;
27857;SDS011;16852;51.446;6.528;2023-03-14T01:00:12;9.77;;;2.22;;
27857;SDS011;16852;51.446;6.528;2023-03-14T01:02:13;5.63;;;1.40;;
27857;SDS011;16852;51.446;6.528;2023-03-14T01:04:13;5.35;;;0.90;;
27857;SDS011;16852;51.446;6.528;2023-03-14T01:06:15;3.60;;;1.00;;
27857;SDS011;16852;51.446;6.528;2023-03-14T01:08:17;6.88;;;1.65;;
27857;SDS011;16852;51.446;6.528;2023-03-14T01:10:17;5.78;;;1.52;;
27857;SDS011;16852;51.446;6.528;2023-03-14T01:12:18;6.00;;;1.63;;
27857;SDS011;16852;51.446;6.528;2023-03-14T01:14:18;5.70;;;1.35;;
27857;SDS011;16852;51.446;6.528;2023-03-14T01:16:20;5.07;;;1.30;;
27857;SDS011;16852;51.446;6.528;2023-03-14T01:20:22;5.53;;;1.27;;
27857;SDS011;16852;51.446;6.528;2023-03-14T01:22:23;4.30;;;1.05;;
27857;SDS011;16852;51.446;6.528;2023-03-14T01:24:23;4.20;;;1.42;;
27857;SDS011;16852;51.446;6.528;2023-03-14T01:26:24;4.43;;;1.50;;
27857;SDS011;16852;51.446;6.528;2023-03-14T01:28:26;6.43;;;1.63;;
27857;SDS011;16852;51.446;6.528;2023-03-14T01:30:27;4.13;;;1.30;;
27857;SDS011;16852;51.446;6.528;2023-03-14T01:32:27;7.47;;;1.55;;
27857;SDS011;16852;51.446;6.528;2023-03-14T01:34:28;6.13;;;1.48;;
27857;SDS011;16852;51.446;6.528;2023-03-14T01:36:28;6.13;;;1.40;;
27857;SDS011;16852;51.446;6.528;2023-03-14T01:38:29;3.25;;;1.33;;
27857;SDS011;16852;51.446;6.528;2023-03-14T01:40:31;4.00;;;1.27;;
27857;SDS011;16852;51.446;6.528;2023-03-14T01:42:31;6.78;;;1.25;;
27857;SDS011;16852;51.446;6.528;2023-03-14T01:46:53;2.63;;;1.25;;
27857;SDS011;16852;51.446;6.528;2023-03-14T01:48:55;4.15;;;1.40;;
27857;SDS011;16852;51.446;6.528;2023-03-14T01:51:04;6.15;;;1.10;;
27857;SDS011;16852;51.446;6.528;2023-03-14T01:53:08;6.78;;;1.55;;
27857;SDS011;16852;51.446;6.528;2023-03-14T01:55:09;4.13;;;0.98;;
27857;SDS011;16852;51.446;6.528;2023-03-14T01:57:17;4.00;;;1.25;;
27857;SDS011;16852;51.446;6.528;2023-03-14T01:59:39;6.03;;;1.27;;
27857;SDS011;16852;51.446;6.528;2023-03-14T02:01:43;3.08;;;1.13;;
27857;SDS011;16852;51.446;6.528;2023-03-14T02:03:48;5.53;;;1.30;;
27857;SDS011;16852;51.446;6.528;2023-03-14T02:05:53;3.53;;;0.90;;
27857;SDS011;16852;51.446;6.528;2023-03-14T02:07:59;1.65;;;0.65;;
27857;SDS011;16852;51.446;6.528;2023-03-14T02:10:01;4.68;;;1.30;;
27857;SDS011;16852;51.446;6.528;2023-03-14T02:12:03;4.22;;;1.10;;
27857;SDS011;16852;51.446;6.528;2023-03-14T02:14:04;8.18;;;1.75;;
27857;SDS011;16852;51.446;6.528;2023-03-14T02:16:05;4.38;;;1.17;;
27857;SDS011;16852;51.446;6.528;2023-03-14T02:18:06;5.97;;;1.27;;
27857;SDS011;16852;51.446;6.528;2023-03-14T02:22:27;3.13;;;0.77;;
27857;SDS011;16852;51.446;6.528;2023-03-14T02:24:47;4.78;;;1.00;;
27857;SDS011;16852;51.446;6.528;2023-03-14T02:27:04;6.38;;;1.55;;
27857;SDS011;16852;51.446;6.528;2023-03-14T02:29:10;2.58;;;1.00;;
27857;SDS011;16852;51.446;6.528;2023-03-14T02:31:10;4.15;;;1.05;;
27857;SDS011;16852;51.446;6.528;2023-03-14T02:33:18;3.75;;;1.10;;
27857;SDS011;16852;51.446;6.528;2023-03-14T02:35:21;4.13;;;1.33;;
27857;SDS011;16852;51.446;6.528;2023-03-14T02:37:29;2.95;;;1.10;;
27857;SDS011;16852;51.446;6.528;2023-03-14T02:39:43;5.35;;;1.60;;
27857;SDS011;16852;51.446;6.528;2023-03-14T02:41:45;4.07;;;1.50;;
27857;SDS011;16852;51.446;6.528;2023-03-14T02:43:46;4.65;;;1.33;;
27857;SDS011;16852;51.446;6.528;2023-03-14T02:45:47;8.27;;;2.08;;
27857;SDS011;16852;51.446;6.528;2023-03-14T02:47:49;6.00;;;1.48;;
27857;SDS011;16852;51.446;6.528;2023-03-14T02:49:57;5.35;;;1.48;;
27857;SDS011;16852;51.446;6.528;2023-03-14T02:52:02;6.80;;;2.10;;
27857;SDS011;16852;51.446;6.528;2023-03-14T02:54:03;8.52;;;1.88;;
27857;SDS011;16852;51.446;6.528;2023-03-14T02:56:03;10.18;;;1.92;;
27857;SDS011;16852;51.446;6.528;2023-03-14T02:58:05;7.55;;;2.00;;
27857;SDS011;16852;51.446;6.528;2023-03-14T03:00:05;9.90;;;2.03;;
27857;SDS011;16852;51.446;6.528;2023-03-14T03:02:07;6.13;;;1.67;;
27857;SDS011;16852;51.446;6.528;2023-03-14T03:04:08;6.72;;;1.98;;
27857;SDS011;16852;51.446;6.528;2023-03-14T03:06:09;7.22;;;1.80;;
27857;SDS011;16852;51.446;6.528;2023-03-14T03:08:10;10.43;;;2.08;;
27857;SDS011;16852;51.446;6.528;2023-03-14T03:10:10;7.05;;;1.92;;
27857;SDS011;16852;51.446;6.528;2023-03-14T03:12:11;6.07;;;1.48;;
27857;SDS011;16852;51.446;6.528;2023-03-14T03:14:12;7.55;;;1.77;;
27857;SDS011;16852;51.446;6.528;2023-03-14T03:16:13;8.88;;;1.70;;
27857;SDS011;16852;51.446;6.528;2023-03-14T03:18:15;11.50;;;2.35;;
27857;SDS011;16852;51.446;6.528;2023-03-14T03:20:15;4.85;;;1.42;;
27857;SDS011;16852;51.446;6.528;2023-03-14T03:22:16;5.30;;;1.50;;
27857;SDS011;16852;51.446;6.528;2023-03-14T03:24:16;7.35;;;1.83;;
27857;SDS011;16852;51.446;6.528;2023-03-14T03:26:17;6.82;;;1.55;;
27857;SDS011;16852;51.446;6.528;2023-03-14T03:28:18;7.57;;;1.60;;
27857;SDS011;16852;51.446;6.528;2023-03-14T03:30:19;8.13;;;2.00;;
27857;SDS011;16852;51.446;6.528;2023-03-14T03:32:20;7.38;;;2.05;;
27857;SDS011;16852;51.446;6.528;2023-03-14T03:34:20;8.73;;;2.03;;
27857;SDS011;16852;51.446;6.528;2023-03-14T03:36:22;6.55;;;1.83;;
27857;SDS011;16852;51.446;6.528;2023-03-14T03:40:24;8.90;;;1.95;;
27857;SDS011;16852;51.446;6.528;2023-03-14T03:42:25;5.35;;;1.77;;
27857;SDS011;16852;51.446;6.528;2023-03-14T03:44:26;7.10;;;1.73;;
27857;SDS011;16852;51.446;6.528;2023-03-14T03:46:27;5.38;;;1.60;;
27857;SDS011;16852;51.446;6.528;2023-03-14T03:48:27;5.15;;;1.25;;
27857;SDS011;16852;51.446;6.528;2023-03-14T03:50:28;9.98;;;2.40;;
27857;SDS011;16852;51.446;6.528;2023-03-14T03:52:29;7.22;;;1.80;;
27857;SDS011;16852;51.446;6.528;2023-03-14T03:54:29;10.02;;;1.60;;
27857;SDS011;16852;51.446;6.528;2023-03-14T03:56:30;6.35;;;1.50;;
27857;SDS011;16852;51.446;6.528;2023-03-14T03:58:31;7.20;;;1.63;;
27857;SDS011;16852;51.446;6.528;2023-03-14T04:00:32;8.27;;;1.70;;
27857;SDS011;16852;51.446;6.528;2023-03-14T04:02:33;6.25;;;1.83;;
27857;SDS011;16852;51.446;6.528;2023-03-14T04:04:33;5.75;;;1.52;;
27857;SDS011;16852;51.446;6.528;2023-03-14T04:06:34;6.40;;;2.00;;
27857;SDS011;16852;51.446;6.528;2023-03-14T04:08:35;7.15;;;1.58;;
27857;SDS011;16852;51.446;6.528;2023-03-14T04:10:35;8.88;;;2.08;;
27857;SDS011;16852;51.446;6.528;2023-03-14T04:12:36;10.18;;;1.70;;
27857;SDS011;16852;51.446;6.528;2023-03-14T04:14:37;8.68;;;2.00;;
27857;SDS011;16852;51.446;6.528;2023-03-14T04:16:37;4.80;;;1.20;;
27857;SDS011;16852;51.446;6.528;2023-03-14T04:18:38;7.25;;;1.42;;
27857;SDS011;16852;51.446;6.528;2023-03-14T04:20:38;6.03;;;1.40;;
27857;SDS011;16852;51.446;6.528;2023-03-14T04:22:39;5.60;;;1.55;;
27857;SDS011;16852;51.446;6.528;2023-03-14T04:24:39;8.88;;;1.33;;
27857;SDS011;16852;51.446;6.528;2023-03-14T04:26:40;5.55;;;1.00;;
27857;SDS011;16852;51.446;6.528;2023-03-14T04:28:41;6.85;;;1.48;;
27857;SDS011;16852;51.446;6.528;2023-03-14T04:30:42;4.70;;;1.25;;
27857;SDS011;16852;51.446;6.528;2023-03-14T04:32:42;6.75;;;1.25;;
27857;SDS011;16852;51.446;6.528;2023-03-14T04:34:43;4.35;;;1.40;;
27857;SDS011;16852;51.446;6.528;2023-03-14T04:36:43;6.68;;;1.30;;
27857;SDS011;16852;51.446;6.528;2023-03-14T04:38:44;6.07;;;1.27;;
27857;SDS011;16852;51.446;6.528;2023-03-14T04:40:45;4.45;;;1.13;;
27857;SDS011;16852;51.446;6.528;2023-03-14T04:42:45;4.90;;;0.90;;
27857;SDS011;16852;51.446;6.528;2023-03-14T04:44:46;4.22;;;0.90;;
27857;SDS011;16852;51.446;6.528;2023-03-14T04:46:49;2.67;;;0.90;;
27857;SDS011;16852;51.446;6.528;2023-03-14T04:48:49;2.30;;;0.70;;
27857;SDS011;16852;51.446;6.528;2023-03-14T04:50:50;3.42;;;1.15;;
27857;SDS011;16852;51.446;6.528;2023-03-14T04:52:51;3.60;;;0.98;;
27857;SDS011;16852;51.446;6.528;2023-03-14T04:54:51;3.00;;;0.60;;
27857;SDS011;16852;51.446;6.528;2023-03-14T04:56:52;2.22;;;0.60;;
27857;SDS011;16852;51.446;6.528;2023-03-14T04:58:53;1.67;;;0.70;;
27857;SDS011;16852;51.446;6.528;2023-03-14T05:00:53;2.53;;;0.60;;
27857;SDS011;16852;51.446;6.528;2023-03-14T05:02:54;3.30;;;0.70;;
27857;SDS011;16852;51.446;6.528;2023-03-14T05:04:54;2.58;;;0.70;;
27857;SDS011;16852;51.446;6.528;2023-03-14T05:06:55;2.00;;;0.63;;
27857;SDS011;16852;51.446;6.528;2023-03-14T05:08:55;4.85;;;0.88;;
27857;SDS011;16852;51.446;6.528;2023-03-14T05:10:57;1.27;;;0.55;;
27857;SDS011;16852;51.446;6.528;2023-03-14T05:12:58;3.05;;;0.63;;
27857;SDS011;16852;51.446;6.528;2023-03-14T05:14:58;1.23;;;0.35;;
27857;SDS011;16852;51.446;6.528;2023-03-14T05:16:59;2.45;;;0.70;;
27857;SDS011;16852;51.446;6.528;2023-03-14T05:18:59;3.10;;;0.77;;
27857;SDS011;16852;51.446;6.528;2023-03-14T05:21:01;1.73;;;0.45;;
27857;SDS011;16852;51.446;6.528;2023-03-14T05:23:02;7.00;;;0.80;;
27857;SDS011;16852;51.446;6.528;2023-03-14T05:25:02;2.33;;;0.60;;
27857;SDS011;16852;51.446;6.528;2023-03-14T05:27:03;0.98;;;0.40;;
27857;SDS011;16852;51.446;6.528;2023-03-14T05:29:04;5.25;;;0.80;;
27857;SDS011;16852;51.446;6.528;2023-03-14T05:31:06;1.92;;;0.60;;
27857;SDS011;16852;51.446;6.528;2023-03-14T05:35:08;1.52;;;0.40;;
27857;SDS011;16852;51.446;6.528;2023-03-14T05:37:08;3.95;;;0.50;;
27857;SDS011;16852;51.446;6.528;2023-03-14T05:39:09;2.42;;;0.60;;
27857;SDS011;16852;51.446;6.528;2023-03-14T05:41:09;2.17;;;0.75;;
27857;SDS011;16852;51.446;6.528;2023-03-14T05:43:10;2.33;;;0.55;;
27857;SDS011;16852;51.446;6.528;2023-03-14T05:45:11;3.20;;;0.60;;
27857;SDS011;16852;51.446;6.528;2023-03-14T05:47:11;0.73;;;0.30;;
27857;SDS011;16852;51.446;6.528;2023-03-14T05:49:12;1.40;;;0.60;;
27857;SDS011;16852;51.446;6.528;2023-03-14T05:51:12;1.23;;;0.43;;
27857;SDS011;16852;51.446;6.528;2023-03-14T05:53:13;1.38;;;0.52;;
27857;SDS011;16852;51.446;6.528;2023-03-14T05:55:14;2.50;;;0.77;;
27857;SDS011;16852;51.446;6.528;2023-03-14T05:57:14;1.48;;;0.70;;
27857;SDS011;16852;51.446;6.528;2023-03-14T05:59:15;2.33;;;0.88;;
27857;SDS011;16852;51.446;6.528;2023-03-14T06:01:15;3.92;;;0.90;;
27857;SDS011;16852;51.446;6.528;2023-03-14T06:03:16;2.67;;;0.70;;
27857;SDS011;16852;51.446;6.528;2023-03-14T06:05:17;2.17;;;0.60;;
27857;SDS011;16852;51.446;6.528;2023-03-14T06:07:17;3.15;;;0.80;;
27857;SDS011;16852;51.446;6.528;2023-03-14T06:09:18;4.35;;;0.75;;
27857;SDS011;16852;51.446;6.528;2023-03-14T06:11:20;1.50;;;0.45;;
27857;SDS011;16852;51.446;6.528;2023-03-14T06:13:20;1.23;;;0.70;;
27857;SDS011;16852;51.446;6.528;2023-03-14T06:15:21;1.75;;;0.50;;
27857;SDS011;16852;51.446;6.528;2023-03-14T06:17:21;1.33;;;0.60;;
27857;SDS011;16852;51.446;6.528;2023-03-14T06:19:22;2.08;;;0.75;;
27857;SDS011;16852;51.446;6.528;2023-03-14T06:21:23;5.07;;;0.75;;
27857;SDS011;16852;51.446;6.528;2023-03-14T06:23:25;2.88;;;0.80;;
27857;SDS011;16852;51.446;6.528;2023-03-14T06:25:26;1.40;;;0.50;;
27857;SDS011;16852;51.446;6.528;2023-03-14T06:27:26;1.30;;;0.70;;
27857;SDS011;16852;51.446;6.528;2023-03-14T06:29:27;1.55;;;0.50;;
27857;SDS011;16852;51.446;6.528;2023-03-14T06:31:27;1.23;;;0.70;;
27857;SDS011;16852;51.446;6.528;2023-03-14T06:33:28;2.28;;;0.60;;
27857;SDS011;16852;51.446;6.528;2023-03-14T06:35:29;3.08;;;0.52;;
27857;SDS011;16852;51.446;6.528;2023-03-14T06:37:29;2.47;;;0.60;;
27857;SDS011;16852;51.446;6.528;2023-03-14T06:39:30;2.55;;;0.57;;
27857;SDS011;16852;51.446;6.528;2023-03-14T06:41:31;2.60;;;0.50;;
27857;SDS011;16852;51.446;6.528;2023-03-14T06:43:32;0.50;;;0.50;;
27857;SDS011;16852;51.446;6.528;2023-03-14T06:45:33;0.40;;;0.30;;
27857;SDS011;16852;51.446;6.528;2023-03-14T06:47:34;1.05;;;0.32;;
27857;SDS011;16852;51.446;6.528;2023-03-14T06:49:34;1.52;;;0.30;;
27857;SDS011;16852;51.446;6.528;2023-03-14T06:51:35;0.50;;;0.50;;
27857;SDS011;16852;51.446;6.528;2023-03-14T06:53:35;2.20;;;0.40;;
27857;SDS011;16852;51.446;6.528;2023-03-14T06:55:36;2.72;;;0.80;;
27857;SDS011;16852;51.446;6.528;2023-03-14T06:57:37;1.23;;;0.70;;
27857;SDS011;16852;51.446;6.528;2023-03-14T06:59:37;0.70;;;0.50;;
27857;SDS011;16852;51.446;6.528;2023-03-14T07:01:38;1.25;;;0.60;;
27857;SDS011;16852;51.446;6.528;2023-03-14T07:03:38;0.75;;;0.52;;
27857;SDS011;16852;51.446;6.528;2023-03-14T07:05:39;1.45;;;0.47;;
27857;SDS011;16852;51.446;6.528;2023-03-14T07:07:41;0.90;;;0.65;;
27857;SDS011;16852;51.446;6.528;2023-03-14T07:09:42;0.93;;;0.50;;
27857;SDS011;16852;51.446;6.528;2023-03-14T07:11:42;2.33;;;0.55;;
27857;SDS011;16852;51.446;6.528;2023-03-14T07:13:43;0.57;;;0.55;;
27857;SDS011;16852;51.446;6.528;2023-03-14T07:15:44;0.95;;;0.70;;
27857;SDS011;16852;51.446;6.528;2023-03-14T07:17:45;1.00;;;0.50;;
27857;SDS011;16852;51.446;6.528;2023-03-14T07:19:47;0.88;;;0.68;;
27857;SDS011;16852;51.446;6.528;2023-03-14T07:21:48;2.95;;;0.65;;
27857;SDS011;16852;51.446;6.528;2023-03-14T07:23:49;2.30;;;0.75;;
27857;SDS011;16852;51.446;6.528;2023-03-14T07:25:49;1.25;;;0.52;;
27857;SDS011;16852;51.446;6.528;2023-03-14T07:27:51;1.88;;;1.02;;
27857;SDS011;16852;51.446;6.528;2023-03-14T07:29:51;1.75;;;1.00;;
27857;SDS011;16852;51.446;6.528;2023-03-14T07:31:52;1.63;;;0.73;;
27857;SDS011;16852;51.446;6.528;2023-03-14T07:33:52;2.25;;;1.00;;
27857;SDS011;16852;51.446;6.528;2023-03-14T07:35:53;1.85;;;1.00;;
27857;SDS011;16852;51.446;6.528;2023-03-14T07:37:53;2.28;;;0.70;;
27857;SDS011;16852;51.446;6.528;2023-03-14T07:39:54;0.85;;;0.52;;
27857;SDS011;16852;51.446;6.528;2023-03-14T07:41:54;2.30;;;0.80;;
27857;SDS011;16852;51.446;6.528;2023-03-14T07:43:55;1.00;;;0.85;;
27857;SDS011;16852;51.446;6.528;2023-03-14T07:45:56;1.80;;;0.70;;
27857;SDS011;16852;51.446;6.528;2023-03-14T07:47:56;2.42;;;1.00;;
27857;SDS011;16852;51.446;6.528;2023-03-14T07:49:57;2.47;;;1.13;;
27857;SDS011;16852;51.446;6.528;2023-03-14T07:51:58;1.48;;;0.93;;
27857;SDS011;16852;51.446;6.528;2023-03-14T07:53:59;2.42;;;1.13;;
27857;SDS011;16852;51.446;6.528;2023-03-14T07:56:00;2.88;;;0.70;;
27857;SDS011;16852;51.446;6.528;2023-03-14T07:58:00;4.72;;;1.00;;
27857;SDS011;16852;51.446;6.528;2023-03-14T08:00:01;1.10;;;0.90;;
27857;SDS011;16852;51.446;6.528;2023-03-14T08:02:05;1.45;;;0.80;;
27857;SDS011;16852;51.446;6.528;2023-03-14T08:04:10;1.95;;;0.70;;
27857;SDS011;16852;51.446;6.528;2023-03-14T08:06:11;0.95;;;0.63;;
27857;SDS011;16852;51.446;6.528;2023-03-14T08:08:11;0.70;;;0.60;;
27857;SDS011;16852;51.446;6.528;2023-03-14T08:10:12;0.50;;;0.47;;
27857;SDS011;16852;51.446;6.528;2023-03-14T08:12:20;0.82;;;0.68;;
27857;SDS011;16852;51.446;6.528;2023-03-14T08:14:21;0.70;;;0.50;;
27857;SDS011;16852;51.446;6.528;2023-03-14T08:16:23;1.58;;;0.82;;
27857;SDS011;16852;51.446;6.528;2023-03-14T08:18:24;1.63;;;0.90;;
27857;SDS011;16852;51.446;6.528;2023-03-14T08:20:25;0.80;;;0.80;;
27857;SDS011;16852;51.446;6.528;2023-03-14T08:22:28;2.53;;;0.93;;
27857;SDS011;16852;51.446;6.528;2023-03-14T08:24:28;1.35;;;0.70;;
27857;SDS011;16852;51.446;6.528;2023-03-14T08:26:29;1.15;;;0.60;;
27857;SDS011;16852;51.446;6.528;2023-03-14T08:28:29;0.50;;;0.50;;
27857;SDS011;16852;51.446;6.528;2023-03-14T08:30:32;0.75;;;0.55;;
27857;SDS011;16852;51.446;6.528;2023-03-14T08:32:33;0.90;;;0.60;;
27857;SDS011;16852;51.446;6.528;2023-03-14T08:34:34;1.17;;;0.68;;
27857;SDS011;16852;51.446;6.528;2023-03-14T08:36:34;1.95;;;0.90;;
27857;SDS011;16852;51.446;6.528;2023-03-14T08:38:35;0.60;;;0.60;;
27857;SDS011;16852;51.446;6.528;2023-03-14T08:40:36;1.55;;;0.93;;
27857;SDS011;16852;51.446;6.528;2023-03-14T08:42:37;0.60;;;0.50;;
27857;SDS011;16852;51.446;6.528;2023-03-14T08:44:38;0.50;;;0.50;;
27857;SDS011;16852;51.446;6.528;2023-03-14T08:46:39;1.15;;;0.70;;
27857;SDS011;16852;51.446;6.528;2023-03-14T08:48:39;0.68;;;0.47;;
27857;SDS011;16852;51.446;6.528;2023-03-14T08:50:40;0.73;;;0.60;;
27857;SDS011;16852;51.446;6.528;2023-03-14T08:52:40;6.32;;;1.02;;
27857;SDS011;16852;51.446;6.528;2023-03-14T08:54:42;3.13;;;0.82;;
27857;SDS011;16852;51.446;6.528;2023-03-14T08:56:43;2.58;;;0.55;;
27857;SDS011;16852;51.446;6.528;2023-03-14T08:58:44;1.50;;;0.40;;
27857;SDS011;16852;51.446;6.528;2023-03-14T09:00:44;0.95;;;0.40;;
27857;SDS011;16852;51.446;6.528;2023-03-14T09:02:45;0.60;;;0.30;;
27857;SDS011;16852;51.446;6.528;2023-03-14T09:04:45;0.55;;;0.30;;
27857;SDS011;16852;51.446;6.528;2023-03-14T09:06:46;4.18;;;0.50;;
27857;SDS011;16852;51.446;6.528;2023-03-14T09:08:47;2.13;;;0.65;;
27857;SDS011;16852;51.446;6.528;2023-03-14T09:10:47;0.60;;;0.40;;
27857;SDS011;16852;51.446;6.528;2023-03-14T09:12:48;0.73;;;0.35;;
27857;SDS011;16852;51.446;6.528;2023-03-14T09:14:48;1.55;;;0.52;;
27857;SDS011;16852;51.446;6.528;2023-03-14T09:16:49;0.80;;;0.40;;
27857;SDS011;16852;51.446;6.528;2023-03-14T09:18:50;3.03;;;0.45;;
27857;SDS011;16852;51.446;6.528;2023-03-14T09:20:54;0.70;;;0.30;;
27857;SDS011;16852;51.446;6.528;2023-03-14T09:22:55;0.52;;;0.52;;
27857;SDS011;16852;51.446;6.528;2023-03-14T09:24:56;0.95;;;0.55;;
27857;SDS011;16852;51.446;6.528;2023-03-14T09:26:57;1.08;;;0.60;;
27857;SDS011;16852;51.446;6.528;2023-03-14T09:28:58;0.63;;;0.47;;
27857;SDS011;16852;51.446;6.528;2023-03-14T09:31:05;1.95;;;1.33;;
27857;SDS011;16852;51.446;6.528;2023-03-14T09:33:10;1.75;;;1.08;;
27857;SDS011;16852;51.446;6.528;2023-03-14T09:35:10;1.80;;;0.95;;
27857;SDS011;16852;51.446;6.528;2023-03-14T09:37:11;2.58;;;1.08;;
27857;SDS011;16852;51.446;6.528;2023-03-14T09:39:12;3.40;;;1.25;;
27857;SDS011;16852;51.446;6.528;2023-03-14T09:41:14;6.57;;;1.30;;
27857;SDS011;16852;51.446;6.528;2023-03-14T09:43:17;2.72;;;1.70;;
27857;SDS011;16852;51.446;6.528;2023-03-14T09:47:31;2.92;;;1.40;;
27857;SDS011;16852;51.446;6.528;2023-03-14T09:49:34;2.42;;;1.80;;
27857;SDS011;16852;51.446;6.528;2023-03-14T09:51:37;3.17;;;1.38;;
27857;SDS011;16852;51.446;6.528;2023-03-14T09:53:42;2.58;;;1.58;;
27857;SDS011;16852;51.446;6.528;2023-03-14T09:55:45;3.28;;;1.80;;
27857;SDS011;16852;51.446;6.528;2023-03-14T09:57:49;5.10;;;1.63;;
27857;SDS011;16852;51.446;6.528;2023-03-14T09:59:56;4.07;;;1.60;;
27857;SDS011;16852;51.446;6.528;2023-03-14T10:02:01;3.10;;;1.50;;
27857;SDS011;16852;51.446;6.528;2023-03-14T10:04:06;3.35;;;1.85;;
27857;SDS011;16852;51.446;6.528;2023-03-14T10:06:13;2.70;;;1.65;;
27857;SDS011;16852;51.446;6.528;2023-03-14T10:08:14;1.73;;;1.38;;
27857;SDS011;16852;51.446;6.528;2023-03-14T10:10:16;2.75;;;1.30;;
27857;SDS011;16852;51.446;6.528;2023-03-14T10:12:35;1.60;;;1.35;;
27857;SDS011;16852;51.446;6.528;2023-03-14T10:14:37;1.52;;;1.02;;
27857;SDS011;16852;51.446;6.528;2023-03-14T10:16:45;1.70;;;1.25;;
27857;SDS011;16852;51.446;6.528;2023-03-14T10:18:46;2.97;;;0.80;;
27857;SDS011;16852;51.446;6.528;2023-03-14T10:20:48;1.45;;;0.98;;
27857;SDS011;16852;51.446;6.528;2023-03-14T10:22:49;1.65;;;0.88;;
27857;SDS011;16852;51.446;6.528;2023-03-14T10:24:52;2.35;;;0.50;;
27857;SDS011;16852;51.446;6.528;2023-03-14T10:29:12;5.22;;;0.82;;
27857;SDS011;16852;51.446;6.528;2023-03-14T10:31:13;1.95;;;0.70;;
27857;SDS011;16852;51.446;6.528;2023-03-14T10:35:20;3.92;;;0.75;;
27857;SDS011;16852;51.446;6.528;2023-03-14T10:37:22;1.25;;;0.50;;
27857;SDS011;16852;51.446;6.528;2023-03-14T10:41:33;2.47;;;0.75;;
27857;SDS011;16852;51.446;6.528;2023-03-14T10:43:34;5.07;;;1.10;;
27857;SDS011;16852;51.446;6.528;2023-03-14T10:45:39;1.35;;;0.30;;
27857;SDS011;16852;51.446;6.528;2023-03-14T10:47:49;1.88;;;0.43;;
27857;SDS011;16852;51.446;6.528;2023-03-14T10:49:51;1.48;;;0.73;;
27857;SDS011;16852;51.446;6.528;2023-03-14T10:51:51;2.92;;;0.90;;
27857;SDS011;16852;51.446;6.528;2023-03-14T10:53:56;5.30;;;1.15;;
27857;SDS011;16852;51.446;6.528;2023-03-14T10:55:58;4.22;;;1.10;;
27857;SDS011;16852;51.446;6.528;2023-03-14T10:58:03;5.57;;;0.73;;
27857;SDS011;16852;51.446;6.528;2023-03-14T11:00:21;1.95;;;0.73;;
27857;SDS011;16852;51.446;6.528;2023-03-14T11:09:36;5.57;;;0.75;;
27857;SDS011;16852;51.446;6.528;2023-03-14T11:11:41;2.03;;;0.52;;
27857;SDS011;16852;51.446;6.528;2023-03-14T11:17:14;2.13;;;0.52;;
27857;SDS011;16852;51.446;6.528;2023-03-14T11:19:14;1.38;;;0.57;;
27857;SDS011;16852;51.446;6.528;2023-03-14T11:23:22;3.03;;;0.93;;
27857;SDS011;16852;51.446;6.528;2023-03-14T11:25:32;2.47;;;0.70;;
27857;SDS011;16852;51.446;6.528;2023-03-14T11:27:45;3.92;;;0.80;;
27857;SDS011;16852;51.446;6.528;2023-03-14T11:32:31;3.10;;;0.77;;
27857;SDS011;16852;51.446;6.528;2023-03-14T11:34:47;2.45;;;0.65;;
27857;SDS011;16852;51.446;6.528;2023-03-14T11:37:04;3.40;;;0.82;;
27857;SDS011;16852;51.446;6.528;2023-03-14T11:39:20;6.65;;;1.23;;
27857;SDS011;16852;51.446;6.528;2023-03-14T11:41:24;11.90;;;1.17;;
27857;SDS011;16852;51.446;6.528;2023-03-14T11:43:33;4.05;;;0.70;;
27857;SDS011;16852;51.446;6.528;2023-03-14T11:45:42;3.70;;;1.15;;
27857;SDS011;16852;51.446;6.528;2023-03-14T11:47:44;2.08;;;0.82;;
27857;SDS011;16852;51.446;6.528;2023-03-14T11:49:59;5.32;;;1.10;;
27857;SDS011;16852;51.446;6.528;2023-03-14T11:52:23;3.60;;;1.17;;
27857;SDS011;16852;51.446;6.528;2023-03-14T11:58:35;7.68;;;1.75;;
27857;SDS011;16852;51.446;6.528;2023-03-14T12:00:42;6.43;;;1.30;;
27857;SDS011;16852;51.446;6.528;2023-03-14T12:09:49;7.00;;;1.20;;
27857;SDS011;16852;51.446;6.528;2023-03-14T12:11:59;7.32;;;1.40;;
27857;SDS011;16852;51.446;6.528;2023-03-14T12:14:15;4.13;;;1.25;;
27857;SDS011;16852;51.446;6.528;2023-03-14T12:16:37;6.15;;;1.70;;
27857;SDS011;16852;51.446;6.528;2023-03-14T12:18:38;11.82;;;2.08;;
27857;SDS011;16852;51.446;6.528;2023-03-14T12:20:41;11.15;;;1.98;;
27857;SDS011;16852;51.446;6.528;2023-03-14T12:22:56;6.30;;;1.48;;
27857;SDS011;16852;51.446;6.528;2023-03-14T12:25:05;8.82;;;1.55;;
27857;SDS011;16852;51.446;6.528;2023-03-14T12:27:37;8.57;;;1.70;;
27857;SDS011;16852;51.446;6.528;2023-03-14T12:30:01;7.45;;;1.92;;
27857;SDS011;16852;51.446;6.528;2023-03-14T12:32:23;5.90;;;1.60;;
27857;SDS011;16852;51.446;6.528;2023-03-14T12:34:26;8.07;;;1.83;;
27857;SDS011;16852;51.446;6.528;2023-03-14T12:38:52;11.85;;;2.53;;
27857;SDS011;16852;51.446;6.528;2023-03-14T12:43:29;12.38;;;2.67;;
27857;SDS011;16852;51.446;6.528;2023-03-14T12:45:32;15.13;;;2.75;;
27857;SDS011;16852;51.446;6.528;2023-03-14T12:49:37;18.50;;;3.13;;
27857;SDS011;16852;51.446;6.528;2023-03-14T12:51:39;10.00;;;2.58;;
27857;SDS011;16852;51.446;6.528;2023-03-14T12:56:11;15.13;;;2.63;;
27857;SDS011;16852;51.446;6.528;2023-03-14T13:00:35;17.75;;;3.35;;
27857;SDS011;16852;51.446;6.528;2023-03-14T13:02:41;18.33;;;3.35;;
27857;SDS011;16852;51.446;6.528;2023-03-14T13:04:47;13.85;;;3.17;;
27857;SDS011;16852;51.446;6.528;2023-03-14T13:07:04;15.48;;;2.83;;
27857;SDS011;16852;51.446;6.528;2023-03-14T13:11:29;13.50;;;2.92;;
27857;SDS011;16852;51.446;6.528;2023-03-14T13:13:34;18.58;;;3.65;;
27857;SDS011;16852;51.446;6.528;2023-03-14T13:15:44;24.35;;;3.60;;
27857;SDS011;16852;51.446;6.528;2023-03-14T13:17:46;23.25;;;3.72;;
27857;SDS011;16852;51.446;6.528;2023-03-14T13:19:52;21.88;;;3.13;;